KBIS/BIS METAR and TAF weather

Enter ICAO airport designator
Station Type Date Time Source
KBIS METAR 2022/01/26 13:52 UTC NOAA

KBIS 261352Z 23011KT 10SM CLR M04/M09 A2974 RMK AO2 SLP106 T10391089 $


Station Type Date Time Source
KBIS Decoded METAR 2022/01/26 13:52 UTC NOAA

BISMARCK MUNICIPAL AIRPORT, ND, United States (KBIS) 46-47N 100-45W 503M
Jan 26, 2022 - 08:52 AM EST / 2022.01.26 1352 UTC
Wind: from the SW (230 degrees) at 13 MPH (11 KT):0
Visibility: 10 mile(s):0
Sky conditions: clear
Temperature: 25.0 F (-3.9 C)
Windchill: 14 F (-10 C):1
Dew Point: 16.0 F (-8.9 C)
Relative Humidity: 68%
Pressure (altimeter): 29.74 in. Hg (1007 hPa)
ob: KBIS 261352Z 23011KT 10SM CLR M04/M09 A2974 RMK AO2 SLP106 T10391089
cycle: 14

Station Type Date Time Source
KBIS TAF 2022/01/26 12:30 UTC NOAA

TAF KBIS 261128Z 2612/2712 18006KT P6SM BKN110 OVC250 WS012/25045KT
FM261500 23011KT P6SM SCT110 BKN200 WS012/30040KT
FM261800 28015G28KT P6SM SCT200
FM270000 31015G24KT P6SM -SHSN BKN025 OVC035
FM270500 31012KT P6SM -SHSN BKN015 OVC025

Example: see airport list